createdAt,value
2023-01-22T00:01:27.657Z,-0.40
2023-01-22T00:03:57.279Z,-0.50
2023-01-22T00:06:24.007Z,-0.40
2023-01-22T00:09:17.045Z,-0.50
2023-01-22T00:11:55.315Z,-0.40
2023-01-22T00:14:21.981Z,-0.40
2023-01-22T00:16:48.997Z,-0.40
2023-01-22T00:19:15.646Z,-0.40
2023-01-22T00:21:42.235Z,-0.40
2023-01-22T00:24:12.435Z,-0.50
2023-01-22T00:26:39.313Z,-0.40
2023-01-22T00:29:06.343Z,-0.40
2023-01-22T00:31:33.148Z,-0.40
2023-01-22T00:33:59.772Z,-0.40
2023-01-22T00:36:26.503Z,-0.30
2023-01-22T00:38:53.170Z,-0.40
2023-01-22T00:41:20.033Z,-0.30
2023-01-22T00:43:51.101Z,-0.40
2023-01-22T00:46:21.619Z,-0.30
2023-01-22T00:48:51.189Z,-0.40
2023-01-22T00:51:18.192Z,-0.40
2023-01-22T00:53:44.951Z,-0.40
2023-01-22T00:56:12.657Z,-0.40
2023-01-22T00:58:39.458Z,-0.50
2023-01-22T01:01:07.436Z,-0.50
2023-01-22T01:03:34.823Z,-0.50
2023-01-22T01:06:13.098Z,-0.50
2023-01-22T01:08:42.156Z,-0.50
2023-01-22T01:11:34.219Z,-0.50
2023-01-22T01:14:01.678Z,-0.50
2023-01-22T01:16:29.898Z,-0.50
2023-01-22T01:19:00.468Z,-0.50
2023-01-22T01:21:27.588Z,-0.50
2023-01-22T01:23:58.276Z,-0.50
2023-01-22T01:26:25.500Z,-0.50
2023-01-22T01:28:55.143Z,-0.60
2023-01-22T01:31:23.028Z,-0.60
2023-01-22T01:33:49.849Z,-0.60
2023-01-22T01:36:21.208Z,-0.60
2023-01-22T01:38:54.882Z,-0.70
2023-01-22T01:41:24.348Z,-0.80
2023-01-22T01:44:08.270Z,-0.80
2023-01-22T01:46:36.476Z,-0.90
2023-01-22T01:49:03.226Z,-1.00
2023-01-22T01:51:32.211Z,-0.90
2023-01-22T01:54:00.045Z,-1.00
2023-01-22T01:56:28.728Z,-1.00
2023-01-22T01:59:06.585Z,-1.00
2023-01-22T02:01:33.308Z,-1.00
2023-01-22T02:04:00.427Z,-1.00
2023-01-22T02:06:27.134Z,-1.00
2023-01-22T02:08:55.056Z,-1.00
2023-01-22T02:11:22.383Z,-1.10
2023-01-22T02:14:10.384Z,-1.10
2023-01-22T02:16:37.197Z,-1.20
2023-01-22T02:19:04.156Z,-1.20
2023-01-22T02:21:30.823Z,-1.20
2023-01-22T02:23:57.807Z,-1.30
2023-01-22T02:26:24.577Z,-1.40
2023-01-22T02:28:51.224Z,-1.40
2023-01-22T02:31:17.927Z,-1.40
2023-01-22T02:33:44.588Z,-1.50
2023-01-22T02:36:11.286Z,-1.50
2023-01-22T02:38:38.000Z,-1.50
2023-01-22T02:41:05.293Z,-1.60
2023-01-22T02:43:31.921Z,-1.60
2023-01-22T02:45:58.647Z,-1.60
2023-01-22T02:48:25.414Z,-1.60
2023-01-22T02:50:52.121Z,-1.60
2023-01-22T02:53:18.773Z,-1.60
2023-01-22T02:55:52.511Z,-1.50
2023-01-22T02:58:25.209Z,-1.50
2023-01-22T03:00:52.111Z,-1.60
2023-01-22T03:03:18.848Z,-1.60
2023-01-22T03:05:49.384Z,-1.60
2023-01-22T03:08:16.653Z,-1.60
2023-01-22T03:10:43.440Z,-1.70
2023-01-22T03:13:28.929Z,-1.80
2023-01-22T03:16:14.089Z,-1.80
2023-01-22T03:18:59.215Z,-1.80
2023-01-22T03:21:25.988Z,-1.90
2023-01-22T03:23:54.039Z,-1.80
2023-01-22T03:26:21.788Z,-1.80
2023-01-22T03:28:49.229Z,-1.90
2023-01-22T03:31:16.744Z,-1.90
2023-01-22T03:33:47.101Z,-2.00
2023-01-22T03:36:15.560Z,-2.00
2023-01-22T03:38:48.822Z,-2.10
2023-01-22T03:41:18.597Z,-2.10
2023-01-22T03:43:45.840Z,-2.10
2023-01-22T03:46:14.236Z,-2.10
2023-01-22T03:48:41.471Z,-2.00
2023-01-22T03:51:09.444Z,-2.00
2023-01-22T03:53:36.378Z,-1.80
2023-01-22T03:56:07.230Z,-1.80
2023-01-22T03:58:33.971Z,-1.80
2023-01-22T04:01:02.110Z,-1.90
2023-01-22T04:03:29.385Z,-1.80
2023-01-22T04:05:56.366Z,-1.70
2023-01-22T04:08:23.033Z,-1.80
2023-01-22T04:10:49.660Z,-1.70
2023-01-22T04:13:16.560Z,-1.80
2023-01-22T04:15:44.685Z,-1.90
2023-01-22T04:20:56.871Z,-1.90
2023-01-22T04:23:23.776Z,-1.80
2023-01-22T04:25:50.530Z,-1.80
2023-01-22T04:28:17.527Z,-1.80
2023-01-22T04:30:45.223Z,-1.80
2023-01-22T04:33:12.305Z,-1.80
2023-01-22T04:35:39.371Z,-1.80
2023-01-22T04:38:06.878Z,-1.90
2023-01-22T04:40:33.700Z,-1.80
2023-01-22T04:43:01.279Z,-1.70
2023-01-22T04:45:27.981Z,-1.60
2023-01-22T04:47:54.652Z,-1.50
2023-01-22T04:50:22.791Z,-1.50
2023-01-22T04:52:54.366Z,-1.40
2023-01-22T04:55:21.306Z,-1.50
2023-01-22T04:57:48.293Z,-1.40
2023-01-22T05:07:20.039Z,-1.40
2023-01-22T05:10:08.799Z,-1.30
2023-01-22T05:13:29.400Z,-1.40
2023-01-22T05:21:54.754Z,-1.70
2023-01-22T05:24:21.645Z,-1.70
2023-01-22T05:26:50.343Z,-1.70
2023-01-22T05:29:17.338Z,-1.70
2023-01-22T05:31:45.124Z,-1.60
2023-01-22T05:34:12.396Z,-1.60
2023-01-22T05:36:40.078Z,-1.60
2023-01-22T05:39:08.527Z,-1.60
2023-01-22T05:41:35.362Z,-1.60
2023-01-22T05:44:03.601Z,-1.60
2023-01-22T05:46:31.949Z,-1.60
2023-01-22T05:49:06.759Z,-1.60
2023-01-22T06:05:29.002Z,-1.40
2023-01-22T06:07:56.083Z,-1.40
2023-01-22T06:10:22.810Z,-1.40
2023-01-22T06:12:49.535Z,-1.40
2023-01-22T06:15:16.346Z,-1.40
2023-01-22T06:17:43.082Z,-1.40
2023-01-22T06:20:10.131Z,-1.40
2023-01-22T06:22:37.344Z,-1.40
2023-01-22T06:25:04.983Z,-1.40
2023-01-22T06:27:31.765Z,-1.50
2023-01-22T06:30:01.827Z,-1.60
2023-01-22T06:32:28.788Z,-1.50
2023-01-22T06:34:55.499Z,-1.50
2023-01-22T06:37:23.051Z,-1.50
2023-01-22T06:39:49.786Z,-1.50
2023-01-22T06:42:16.674Z,-1.50
2023-01-22T06:44:43.400Z,-1.50
2023-01-22T06:47:10.171Z,-1.40
2023-01-22T06:49:36.872Z,-1.40
2023-01-22T06:52:06.338Z,-1.40
2023-01-22T06:54:33.190Z,-1.40
2023-01-22T06:56:59.974Z,-1.40
2023-01-22T06:59:26.751Z,-1.40
2023-01-22T07:01:53.546Z,-1.40
2023-01-22T07:04:20.410Z,-1.40
2023-01-22T07:06:47.084Z,-1.40
2023-01-22T07:09:13.760Z,-1.30
2023-01-22T07:11:40.573Z,-1.30
2023-01-22T07:14:07.331Z,-1.20
2023-01-22T07:16:34.165Z,-1.10
2023-01-22T07:19:01.203Z,-1.10
2023-01-22T07:25:00.066Z,-1.00
2023-01-22T07:27:30.397Z,-0.90
2023-01-22T07:29:57.186Z,-0.90
2023-01-22T07:32:23.975Z,-0.80
2023-01-22T07:35:07.091Z,-0.80
2023-01-22T07:37:53.478Z,-0.70
2023-01-22T07:40:20.809Z,-0.60
2023-01-22T07:42:47.524Z,-0.50
2023-01-22T07:45:14.291Z,-0.50
2023-01-22T07:47:41.106Z,-0.40
2023-01-22T07:50:08.109Z,-0.40
2023-01-22T07:52:34.760Z,-0.40
2023-01-22T07:55:01.495Z,-0.40
2023-01-22T07:57:28.232Z,-0.40
2023-01-22T07:59:54.863Z,-0.50
2023-01-22T08:02:21.677Z,-0.60
2023-01-22T08:04:48.366Z,-0.70
2023-01-22T08:07:16.921Z,-0.70
2023-01-22T08:09:44.071Z,-0.70
2023-01-22T08:12:11.153Z,-0.70
2023-01-22T08:14:37.915Z,-0.80
2023-01-22T08:17:04.593Z,-0.80
2023-01-22T08:19:31.353Z,-0.90
2023-01-22T08:21:58.016Z,-0.90
2023-01-22T08:24:24.792Z,-0.80
2023-01-22T08:26:51.555Z,-0.90
2023-01-22T08:29:18.417Z,-0.80
2023-01-22T08:31:45.380Z,-0.80
2023-01-22T08:34:12.166Z,-0.80
2023-01-22T08:36:38.879Z,-0.70
2023-01-22T08:39:05.556Z,-0.60
2023-01-22T08:41:32.209Z,-0.60
2023-01-22T08:43:58.988Z,-0.50
2023-01-22T08:46:25.753Z,-0.50
2023-01-22T08:48:52.392Z,-0.40
2023-01-22T08:51:19.670Z,-0.40
2023-01-22T08:53:46.420Z,-0.30
2023-01-22T08:56:15.603Z,-0.20
2023-01-22T08:58:42.370Z,-0.10
2023-01-22T09:01:17.174Z,0.00
2023-01-22T09:03:44.006Z,0.10
2023-01-22T09:06:12.075Z,0.30
2023-01-22T09:08:38.863Z,0.50
2023-01-22T09:11:05.809Z,0.70
2023-01-22T09:13:32.587Z,0.70
2023-01-22T09:15:59.556Z,0.80
2023-01-22T09:18:26.302Z,0.70
2023-01-22T09:20:52.997Z,0.80
2023-01-22T09:23:19.694Z,0.70
2023-01-22T09:25:46.409Z,0.70
2023-01-22T09:28:13.189Z,0.70
2023-01-22T09:40:02.612Z,0.90
2023-01-22T09:42:31.957Z,1.00
2023-01-22T09:45:03.782Z,1.10
2023-01-22T09:47:59.781Z,1.10
2023-01-22T09:50:28.425Z,1.10
2023-01-22T09:52:57.651Z,1.30
2023-01-22T09:55:25.227Z,1.30
2023-01-22T09:57:53.550Z,1.30
2023-01-22T10:00:27.291Z,1.40
2023-01-22T10:02:53.994Z,1.40
2023-01-22T10:05:31.561Z,1.50
2023-01-22T10:08:00.751Z,1.60
2023-01-22T10:10:28.001Z,1.70
2023-01-22T10:13:00.638Z,1.70
2023-01-22T10:15:29.343Z,1.70
2023-01-22T10:17:56.900Z,1.60
2023-01-22T10:20:24.714Z,1.60
2023-01-22T10:22:54.097Z,1.50
2023-01-22T10:25:20.867Z,1.50
2023-01-22T10:27:56.299Z,1.40
2023-01-22T10:30:25.085Z,1.30
2023-01-22T10:33:03.982Z,1.30
2023-01-22T10:35:32.002Z,1.40
2023-01-22T10:38:00.091Z,1.40
2023-01-22T10:40:34.337Z,1.40
2023-01-22T10:43:02.300Z,1.40
2023-01-22T10:45:29.001Z,1.40
2023-01-22T10:57:35.555Z,1.70
2023-01-22T11:00:05.869Z,1.90
2023-01-22T11:02:34.256Z,2.20
2023-01-22T11:05:21.312Z,2.30
2023-01-22T11:07:51.878Z,2.30
2023-01-22T11:10:18.849Z,2.40
2023-01-22T11:12:48.860Z,2.40
2023-01-22T11:18:59.938Z,2.30
2023-01-22T11:21:28.918Z,2.10
2023-01-22T11:31:39.233Z,1.80
2023-01-22T11:34:28.448Z,1.70
2023-01-22T11:36:58.234Z,1.60
2023-01-22T11:39:43.608Z,1.60
2023-01-22T11:42:26.214Z,1.60
2023-01-22T11:45:02.094Z,1.60
2023-01-22T11:47:47.145Z,1.60
2023-01-22T11:50:32.599Z,1.60
2023-01-22T11:53:24.197Z,1.60
2023-01-22T11:56:11.186Z,1.50
2023-01-22T11:58:43.776Z,1.40
2023-01-22T12:04:56.759Z,1.40
2023-01-22T12:11:12.106Z,1.40
2023-01-22T12:14:05.300Z,1.40
2023-01-22T12:16:35.199Z,1.40
2023-01-22T12:19:04.944Z,1.30
2023-01-22T12:21:47.572Z,1.40
2023-01-22T12:25:11.861Z,1.40
2023-01-22T12:28:11.764Z,1.30
2023-01-22T12:30:59.286Z,1.40
2023-01-22T12:33:27.609Z,1.40
2023-01-22T12:35:56.883Z,1.40
2023-01-22T12:38:35.652Z,1.30
2023-01-22T12:41:09.438Z,1.30
2023-01-22T12:43:55.989Z,1.30
2023-01-22T12:46:35.057Z,1.30
2023-01-22T12:49:01.756Z,1.40
2023-01-22T12:51:39.684Z,1.40
2023-01-22T12:54:28.631Z,1.50
2023-01-22T12:56:57.601Z,1.60
2023-01-22T12:59:36.276Z,1.70
2023-01-22T13:02:05.383Z,1.70
2023-01-22T13:04:33.091Z,1.70
2023-01-22T13:07:07.146Z,1.60
2023-01-22T13:09:38.352Z,1.70
2023-01-22T13:12:49.612Z,1.60
2023-01-22T13:15:22.571Z,1.70
2023-01-22T13:18:06.321Z,1.50
2023-01-22T13:21:07.452Z,1.50
2023-01-22T13:29:37.619Z,1.30
2023-01-22T13:32:18.151Z,1.30
2023-01-22T13:34:44.833Z,1.40
2023-01-22T13:37:30.889Z,1.30
2023-01-22T13:39:57.529Z,1.40
2023-01-22T13:42:24.753Z,1.40
2023-01-22T13:58:18.891Z,1.30
2023-01-22T14:00:51.860Z,1.20
2023-01-22T14:03:20.597Z,1.20
2023-01-22T14:05:49.494Z,1.10
2023-01-22T14:08:16.956Z,1.00
2023-01-22T14:10:43.947Z,1.00
2023-01-22T14:13:13.077Z,1.00
2023-01-22T14:15:40.644Z,1.00
2023-01-22T14:18:14.689Z,1.00
2023-01-22T14:20:42.095Z,0.90
2023-01-22T14:23:09.267Z,0.90
2023-01-22T14:25:43.829Z,0.90
2023-01-22T14:28:10.727Z,0.90
2023-01-22T14:30:37.438Z,0.90
2023-01-22T14:33:05.312Z,0.90
2023-01-22T14:35:31.951Z,0.90
2023-01-22T14:37:58.688Z,0.90
2023-01-22T14:40:26.625Z,0.90
2023-01-22T14:42:53.603Z,0.90
2023-01-22T14:45:25.337Z,0.90
2023-01-22T14:47:52.914Z,0.90
2023-01-22T14:50:20.659Z,0.90
2023-01-22T14:52:47.984Z,0.90
2023-01-22T14:55:15.009Z,0.80
2023-01-22T14:57:41.658Z,0.80
2023-01-22T15:00:08.726Z,0.80
2023-01-22T15:02:40.020Z,0.70
2023-01-22T15:05:06.924Z,0.70
2023-01-22T15:07:33.837Z,0.50
2023-01-22T15:10:01.064Z,0.40
2023-01-22T15:12:27.837Z,0.40
2023-01-22T15:14:54.458Z,0.30
2023-01-22T15:17:24.083Z,0.30
2023-01-22T15:19:51.401Z,0.30
2023-01-22T15:22:18.085Z,0.20
2023-01-22T15:24:44.765Z,0.20
2023-01-22T15:27:11.736Z,0.10
2023-01-22T15:29:38.427Z,0.00
2023-01-22T15:32:06.198Z,0.00
2023-01-22T15:34:35.919Z,-0.10
2023-01-22T15:37:03.561Z,-0.10
2023-01-22T15:39:32.176Z,-0.10
2023-01-22T15:41:59.845Z,-0.10
2023-01-22T15:44:26.475Z,-0.10
2023-01-22T15:46:53.113Z,-0.10
2023-01-22T15:49:20.355Z,-0.10
2023-01-22T15:51:56.264Z,-0.10
2023-01-22T15:54:25.558Z,-0.10
2023-01-22T15:56:52.772Z,-0.20
2023-01-22T15:59:19.721Z,-0.20
2023-01-22T16:01:47.851Z,-0.20
2023-01-22T16:04:14.458Z,-0.20
2023-01-22T16:06:41.150Z,-0.30
2023-01-22T16:09:07.837Z,-0.20
2023-01-22T16:11:35.172Z,-0.20
2023-01-22T16:14:02.093Z,-0.10
2023-01-22T16:16:32.760Z,-0.10
2023-01-22T16:19:00.789Z,-0.10
2023-01-22T16:21:27.650Z,-0.10
2023-01-22T16:23:55.578Z,-0.10
2023-01-22T16:26:26.910Z,-0.20
2023-01-22T16:28:55.263Z,-0.30
2023-01-22T16:31:24.011Z,-0.30
2023-01-22T16:33:52.625Z,-0.30
2023-01-22T16:36:20.146Z,-0.40
2023-01-22T16:38:47.380Z,-0.40
2023-01-22T16:41:34.107Z,-0.50
2023-01-22T16:44:07.974Z,-0.60
2023-01-22T16:47:02.376Z,-0.60
2023-01-22T16:49:45.267Z,-0.60
2023-01-22T16:52:21.940Z,-0.50
2023-01-22T17:00:51.682Z,-0.60
2023-01-22T17:03:18.302Z,-0.70
2023-01-22T17:05:47.715Z,-0.80
2023-01-22T17:08:45.497Z,-0.80
2023-01-22T17:11:29.324Z,-0.80
2023-01-22T17:13:56.006Z,-0.70
2023-01-22T17:16:23.897Z,-0.70
2023-01-22T17:18:50.668Z,-0.60
2023-01-22T17:21:18.927Z,-0.60
2023-01-22T17:23:45.592Z,-0.60
2023-01-22T17:26:14.670Z,-0.60
2023-01-22T17:28:41.305Z,-0.60
2023-01-22T17:31:15.832Z,-0.50
2023-01-22T17:33:42.959Z,-0.50
2023-01-22T17:36:10.961Z,-0.60
2023-01-22T17:38:52.127Z,-0.70
2023-01-22T17:41:20.651Z,-0.70
2023-01-22T17:43:47.918Z,-0.70
2023-01-22T18:00:23.644Z,-0.60
2023-01-22T18:26:09.768Z,-0.50
2023-01-22T18:28:36.937Z,-0.50
2023-01-22T18:31:22.998Z,-0.60
2023-01-22T18:33:51.811Z,-0.60
2023-01-22T18:36:20.041Z,-0.60
2023-01-22T18:38:46.795Z,-0.50
2023-01-22T18:41:15.184Z,-0.50
2023-01-22T18:43:42.248Z,-0.50
2023-01-22T18:46:11.553Z,-0.50
2023-01-22T18:48:39.395Z,-0.50
2023-01-22T18:51:06.444Z,-0.60
2023-01-22T18:53:49.300Z,-0.60
2023-01-22T18:56:23.601Z,-0.60
2023-01-22T18:59:18.233Z,-0.50
2023-01-22T19:02:00.049Z,-0.50
2023-01-22T19:07:13.174Z,-0.70
2023-01-22T19:09:40.056Z,-0.80
2023-01-22T19:12:13.546Z,-0.90
2023-01-22T19:14:40.239Z,-0.90
2023-01-22T19:17:07.099Z,-0.90
2023-01-22T19:19:33.883Z,-1.00
2023-01-22T19:22:00.589Z,-1.00
2023-01-22T19:24:28.489Z,-1.10
2023-01-22T19:26:56.091Z,-1.20
2023-01-22T19:29:32.221Z,-1.20
2023-01-22T19:32:18.910Z,-1.30
2023-01-22T19:34:45.595Z,-1.40
2023-01-22T19:37:36.714Z,-1.50
2023-01-22T19:40:30.507Z,-1.60
2023-01-22T19:42:57.377Z,-1.80
2023-01-22T19:45:35.731Z,-1.90
2023-01-22T19:48:06.720Z,-2.00
2023-01-22T19:50:35.788Z,-2.00
2023-01-22T19:53:39.983Z,-2.10
2023-01-22T19:56:30.776Z,-2.10
2023-01-22T19:59:00.152Z,-2.20
2023-01-22T20:01:36.903Z,-2.30
2023-01-22T20:04:04.323Z,-2.40
2023-01-22T20:06:31.080Z,-2.40
2023-01-22T20:09:08.012Z,-2.50
2023-01-22T20:11:39.035Z,-2.50
2023-01-22T20:14:05.676Z,-2.60
2023-01-22T20:16:32.356Z,-2.80
2023-01-22T20:18:59.022Z,-2.80
2023-01-22T20:21:27.086Z,-2.90
2023-01-22T20:24:01.455Z,-2.90
2023-01-22T20:26:28.340Z,-3.00
2023-01-22T20:28:55.847Z,-3.00
2023-01-22T20:31:23.640Z,-3.10
2023-01-22T20:33:54.836Z,-3.10
2023-01-22T20:36:21.974Z,-3.10
2023-01-22T20:38:56.617Z,-3.40
2023-01-22T20:41:30.574Z,-3.50
2023-01-22T20:44:00.698Z,-3.60
2023-01-22T20:46:48.825Z,-3.60
2023-01-22T20:49:15.581Z,-3.70
2023-01-22T20:51:42.770Z,-3.80
2023-01-22T20:54:10.146Z,-3.70
2023-01-22T20:56:46.161Z,-3.70
2023-01-22T20:59:15.349Z,-3.80
2023-01-22T21:01:42.066Z,-3.90
2023-01-22T21:04:16.943Z,-4.00
2023-01-22T21:06:43.686Z,-4.10
2023-01-22T21:09:10.939Z,-4.20
2023-01-22T21:11:44.817Z,-4.10
2023-01-22T21:14:20.435Z,-4.20
2023-01-22T21:16:47.205Z,-4.40
2023-01-22T21:19:15.985Z,-4.40
2023-01-22T21:21:42.750Z,-4.50
2023-01-22T21:24:09.524Z,-4.50
2023-01-22T21:26:36.468Z,-4.60
2023-01-22T21:29:08.495Z,-4.60
2023-01-22T21:31:35.987Z,-4.60
2023-01-22T21:34:04.907Z,-4.60
2023-01-22T21:36:33.527Z,-4.60
2023-01-22T21:39:01.894Z,-4.60
2023-01-22T21:41:28.556Z,-4.70
2023-01-22T21:44:18.321Z,-4.70
2023-01-22T21:46:45.721Z,-4.80
2023-01-22T21:49:18.052Z,-5.00
2023-01-22T21:51:55.858Z,-5.00
2023-01-22T21:54:27.311Z,-5.10
2023-01-22T21:56:54.427Z,-5.10
2023-01-22T21:59:21.356Z,-5.00
2023-01-22T22:01:50.296Z,-4.90
2023-01-22T22:04:17.953Z,-4.80
2023-01-22T22:06:44.889Z,-4.80
2023-01-22T22:09:13.028Z,-4.80
2023-01-22T22:11:43.755Z,-4.80
2023-01-22T22:14:15.754Z,-4.80
2023-01-22T22:16:43.666Z,-4.80
2023-01-22T22:19:10.639Z,-4.90
2023-01-22T22:21:37.289Z,-5.10
2023-01-22T22:24:04.114Z,-5.10
2023-01-22T22:26:31.105Z,-5.00
2023-01-22T22:28:57.783Z,-5.00
2023-01-22T22:31:28.840Z,-5.10
2023-01-22T22:33:56.264Z,-5.10
2023-01-22T22:36:24.282Z,-5.10
2023-01-22T22:38:51.133Z,-5.20
2023-01-22T22:41:19.477Z,-5.20
2023-01-22T22:43:47.571Z,-5.20
2023-01-22T22:46:15.808Z,-5.10
2023-01-22T22:48:42.831Z,-5.00
2023-01-22T22:51:14.198Z,-4.90
2023-01-22T22:53:41.417Z,-4.80
2023-01-22T22:56:11.391Z,-4.70
2023-01-22T22:58:38.378Z,-4.70
2023-01-22T23:01:08.158Z,-4.80
2023-01-22T23:03:37.038Z,-4.70
2023-01-22T23:06:08.510Z,-4.60
2023-01-22T23:08:36.771Z,-4.60
2023-01-22T23:11:07.642Z,-4.60
2023-01-22T23:13:34.690Z,-4.50
2023-01-22T23:16:01.858Z,-4.40
2023-01-22T23:18:28.722Z,-4.20
2023-01-22T23:20:55.347Z,-4.10
2023-01-22T23:23:22.039Z,-4.00
2023-01-22T23:25:48.884Z,-4.00
2023-01-22T23:28:15.565Z,-4.00
2023-01-22T23:30:42.234Z,-4.00
2023-01-22T23:33:08.890Z,-3.90
2023-01-22T23:35:35.496Z,-3.90
2023-01-22T23:38:02.160Z,-3.80
2023-01-22T23:40:30.102Z,-3.80
2023-01-22T23:42:56.824Z,-3.90
2023-01-22T23:45:23.471Z,-4.10
2023-01-22T23:47:51.153Z,-4.20
2023-01-22T23:50:18.090Z,-4.20
2023-01-22T23:52:46.373Z,-4.20
2023-01-22T23:55:13.643Z,-4.30
2023-01-22T23:57:40.368Z,-4.30
